Spa/La Sauveniere, Belgium
Current Conditions -  °F | °C
As of 10:25 AM on Saturday 01 Nov 2014 (Local Time) from EBLB Reporting Station
Few Clouds Few Clouds  
Wind Chill: 15°   Ceiling: Unl
Heat Index: 15°   Visibility: 6mi
Dew Point:   Wind: 1mph
Humidity: 63%   Direction: NA
Pressure: 30.18"   Gusts: NA
Location:  50.49°N, 5.89°E
Report Text: EBLB 010925Z AUTO VRB01KT 9999 FEW120/// 15/08 Q1022 BLU
Loading
Personal Weather Stations






























Interactive Weather Map
Tropical Storm Tracking
New forecast layout! Learn more

10-Day Weather Forecast

Advertisements
Track Severe Weather on mobile